Time;durP1;ratioP1;P1;durP2;ratioP2;P2;SDS_P1;SDS_P2;PMS_P1;PMS_P2;Temp;Humidity;BMP_temperature;BMP_pressure;BME280_temperature;BME280_humidity;BME280_pressure;Samples;Min_cycle;Max_cycle;Signal;HPM_P1;HPM_P2
2022/02/18 00:05:57;;;;;;;11.55;2.83;;;;;;;;;;4991523;28;20044;-59
2022/02/18 00:08:27;;;;;;;11.70;3.17;;;;;;;;;;5048007;28;20526;-59
2022/02/18 00:11:24;;;;;;;6.53;2.85;;;;;;;;;;5010453;28;20037;-59
2022/02/18 00:14:17;;;;;;;7.90;2.63;;;;;;;;;;5045174;28;20095;-59
2022/02/18 00:17:14;;;;;;;11.90;3.85;;;;;;;;;;5049269;28;20112;-59
2022/02/18 00:23:18;;;;;;;18.02;4.53;;;;;;;;;;5057219;28;20033;-59
2022/02/18 00:28:50;;;;;;;10.38;2.85;;;;;;;;;;4988518;28;20105;-59
2022/02/18 00:31:17;;;;;;;;;;;;;;;;;;5020829;28;20037;-59
2022/02/18 00:34:05;;;;;;;7.22;2.47;;;;;;;;;;5027706;28;19913;-59
2022/02/18 00:37:00;;;;;;;;;;;;;;;;;;;;;
2022/02/18 00:42:56;;;;;;;8.32;2.75;;;;;;;;;;4994945;28;20026;-59
2022/02/18 00:45:41;;;;;;;6.28;2.10;;;;;;;;;;5022855;28;20038;-59
2022/02/18 00:48:15;;;;;;;11.52;2.00;;;;;;;;;;5035358;28;20109;-59
2022/02/18 00:50:41;;;;;;;10.05;2.35;;;;;;;;;;5029451;28;20029;-59
2022/02/18 00:53:46;;;;;;;8.55;2.88;;;;;;;;;;5030618;28;20037;-59
2022/02/18 00:56:40;;;;;;;9.07;2.92;;;;;;;;;;5045289;28;20079;-59
2022/02/18 01:02:20;;;;;;;11.05;2.83;;;;;;;;;;5034061;28;20036;-59
2022/02/18 01:05:15;;;;;;;10.10;3.22;;;;;;;;;;5046983;28;20038;-59
2022/02/18 01:14:13;;;;;;;9.98;2.53;;;;;;;;;;5108947;28;20096;-59
2022/02/18 01:17:08;;;;;;;10.60;2.10;;;;;;;;;;5107678;28;20046;-58
2022/02/18 01:19:47;;;;;;;10.55;3.42;;;;;;;;;;5108924;28;20024;-59
2022/02/18 01:25:31;;;;;;;6.70;2.97;;;;;;;;;;5109134;28;20067;-59
2022/02/18 01:28:19;;;;;;;11.20;2.85;;;;;;;;;;5108885;28;20028;-59
2022/02/18 01:31:07;;;;;;;13.70;4.20;;;;;;;;;;5109206;28;20024;-59
2022/02/18 01:33:34;;;;;;;16.55;3.17;;;;;;;;;;5109147;28;20074;-59
2022/02/18 01:36:16;;;;;;;8.65;1.98;;;;;;;;;;5109206;28;20020;-59
2022/02/18 01:38:54;;;;;;;11.90;2.83;;;;;;;;;;5109033;28;20021;-59
2022/02/18 01:44:42;;;;;;;10.18;3.85;;;;;;;;;;5108815;28;20036;-59
2022/02/18 01:47:43;;;;;;;11.65;3.25;;;;;;;;;;5111331;28;20064;-59
2022/02/18 01:50:47;;;;;;;6.93;3.00;;;;;;;;;;5112941;28;20032;-59
2022/02/18 01:53:30;;;;;;;8.63;3.42;;;;;;;;;;5112753;28;20028;-59
2022/02/18 01:56:00;;;;;;;9.93;2.72;;;;;;;;;;5054771;28;20037;-59
2022/02/18 01:58:44;;;;;;;13.35;3.35;;;;;;;;;;5053352;28;20048;-59
2022/02/18 02:02:01;;;;;;;8.88;2.38;;;;;;;;;;5070097;28;20136;-59
2022/02/18 02:07:45;;;;;;;8.70;3.30;;;;;;;;;;5061988;28;20115;-59
2022/02/18 02:10:23;;;;;;;12.90;2.95;;;;;;;;;;5070404;28;20037;-59
2022/02/18 02:13:16;;;;;;;12.30;2.80;;;;;;;;;;5070053;28;20064;-59
2022/02/18 02:15:58;;;;;;;12.90;2.65;;;;;;;;;;5070032;28;20049;-58
2022/02/18 02:18:30;;;;;;;10.30;2.80;;;;;;;;;;5069760;28;20152;-59
2022/02/18 02:21:11;;;;;;;13.05;2.35;;;;;;;;;;5070178;28;20084;-59
2022/02/18 02:26:54;;;;;;;9.88;2.50;;;;;;;;;;5050645;28;19904;-59
2022/02/18 02:29:41;;;;;;;8.40;3.22;;;;;;;;;;5111691;28;20486;-59
2022/02/18 02:32:38;;;;;;;13.30;2.78;;;;;;;;;;5104541;28;20051;-59
2022/02/18 02:35:24;;;;;;;10.05;2.53;;;;;;;;;;5094364;28;20025;-59
2022/02/18 02:38:00;;;;;;;9.00;2.08;;;;;;;;;;5092171;28;20467;-59
2022/02/18 02:40:41;;;;;;;8.07;2.00;;;;;;;;;;5111829;28;20024;-59
2022/02/18 02:46:48;;;;;;;8.93;3.40;;;;;;;;;;5104120;28;20397;-59
2022/02/18 02:52:16;;;;;;;7.90;1.98;;;;;;;;;;5029057;28;20045;-59
2022/02/18 02:55:04;;;;;;;5.30;1.75;;;;;;;;;;5013296;28;20030;-59
2022/02/18 02:57:58;;;;;;;11.18;2.45;;;;;;;;;;5029597;28;20086;-59
2022/02/18 03:00:45;;;;;;;6.63;2.50;;;;;;;;;;5029562;28;20093;-59
2022/02/18 03:03:35;;;;;;;10.90;2.53;;;;;;;;;;5044927;28;20040;-59
2022/02/18 03:06:15;;;;;;;15.63;3.25;;;;;;;;;;5084592;28;20036;-59
2022/02/18 03:08:54;;;;;;;8.13;3.10;;;;;;;;;;5068991;28;20044;-59
2022/02/18 03:11:51;;;;;;;8.70;2.70;;;;;;;;;;5068957;28;20048;-59
2022/02/18 03:14:39;;;;;;;12.80;2.70;;;;;;;;;;5068730;28;20033;-59
2022/02/18 03:17:43;;;;;;;4.38;2.17;;;;;;;;;;5064387;28;20061;-59
2022/02/18 03:20:38;;;;;;;5.68;2.33;;;;;;;;;;5020152;28;20047;-59
2022/02/18 03:23:27;;;;;;;11.05;3.53;;;;;;;;;;5044398;28;20065;-59
2022/02/18 03:25:57;;;;;;;6.47;1.95;;;;;;;;;;5048868;28;20033;-57
2022/02/18 03:29:02;;;;;;;9.65;2.05;;;;;;;;;;5049055;28;20048;-59
2022/02/18 03:31:48;;;;;;;8.05;2.65;;;;;;;;;;5026881;28;20510;-59
2022/02/18 03:34:35;;;;;;;7.82;2.03;;;;;;;;;;5041787;28;20045;-59
2022/02/18 03:37:46;;;;;;;;;;;;;;;;;;;;;
2022/02/18 03:40:18;;;;;;;9.38;2.83;;;;;;;;;;5072064;28;20033;-59
2022/02/18 03:43:08;;;;;;;7.57;2.25;;;;;;;;;;5090443;28;20025;-59
2022/02/18 03:45:38;;;;;;;2.83;1.55;;;;;;;;;;5089962;28;20031;-59
2022/02/18 03:54:33;;;;;;;5.18;1.80;;;;;;;;;;4979212;28;20054;-59
2022/02/18 03:57:08;;;;;;;9.48;3.40;;;;;;;;;;5083657;28;20120;-59
2022/02/18 04:00:03;;;;;;;9.32;2.60;;;;;;;;;;5090163;28;20036;-59
2022/02/18 04:03:14;;;;;;;8.07;2.47;;;;;;;;;;5082956;28;20037;-59
2022/02/18 04:05:56;;;;;;;3.00;1.88;;;;;;;;;;4988921;28;20090;-59
2022/02/18 04:09:06;;;;;;;;;;;;;;;;;;;;;
2022/02/18 04:11:39;;;;;;;6.72;2.78;;;;;;;;;;5086739;28;20490;-59
2022/02/18 04:20:28;;;;;;;13.38;4.35;;;;;;;;;;5109818;28;20043;-59
2022/02/18 04:23:29;;;;;;;10.10;3.78;;;;;;;;;;5092110;28;20055;-59
2022/02/18 04:26:15;;;;;;;18.17;3.78;;;;;;;;;;5109799;28;20059;-59
2022/02/18 04:32:22;;;;;;;11.73;4.15;;;;;;;;;;5100400;28;20111;-59
2022/02/18 04:41:27;;;;;;;;;;;;;;;;;;;;;
2022/02/18 04:49:46;;;;;;;8.52;2.28;;;;;;;;;;5009152;28;20034;-59
2022/02/18 04:52:51;;;;;;;;;;;;;;;;;;;;;
2022/02/18 04:58:23;;;;;;;10.55;2.25;;;;;;;;;;5052219;28;20032;-59
2022/02/18 05:01:18;;;;;;;7.38;3.03;;;;;;;;;;5076460;28;20111;-59
2022/02/18 05:04:12;;;;;;;7.32;2.63;;;;;;;;;;5085494;28;20101;-59
2022/02/18 05:13:18;;;;;;;15.88;3.13;;;;;;;;;;5042543;28;20063;-59
2022/02/18 05:15:47;;;;;;;7.65;2.72;;;;;;;;;;5068959;28;20499;-59
2022/02/18 05:18:43;;;;;;;8.18;1.65;;;;;;;;;;5086830;28;20421;-59
2022/02/18 05:21:47;;;;;;;7.22;2.15;;;;;;;;;;5094747;28;20028;-59
2022/02/18 05:27:37;;;;;;;10.30;2.72;;;;;;;;;;5035610;28;20029;-59
2022/02/18 05:30:09;;;;;;;4.97;2.95;;;;;;;;;;5097498;28;20028;-59
2022/02/18 05:32:45;;;;;;;8.60;2.55;;;;;;;;;;5098422;28;20020;-59
2022/02/18 05:35:57;;;;;;;4.95;2.60;;;;;;;;;;5098282;28;20086;-59
2022/02/18 05:41:40;;;;;;;6.43;3.72;;;;;;;;;;5098148;28;20039;-59
2022/02/18 05:44:31;;;;;;;10.65;3.22;;;;;;;;;;5098357;28;20369;-59
2022/02/18 05:47:36;;;;;;;5.93;1.73;;;;;;;;;;5098749;28;20024;-59
2022/02/18 05:50:44;;;;;;;6.35;1.98;;;;;;;;;;5097507;28;20036;-59
2022/02/18 05:56:39;;;;;;;12.93;2.10;;;;;;;;;;5000025;28;20104;-59
2022/02/18 05:59:20;;;;;;;6.43;2.20;;;;;;;;;;5016511;28;20522;-59
2022/02/18 06:05:01;;;;;;;11.70;3.72;;;;;;;;;;5015475;28;20030;-59
2022/02/18 06:10:55;;;;;;;8.10;2.47;;;;;;;;;;5015752;28;20042;-59
2022/02/18 06:13:47;;;;;;;14.48;4.05;;;;;;;;;;5016160;28;20034;-59
2022/02/18 06:16:33;;;;;;;5.55;2.50;;;;;;;;;;5040830;28;20098;-59
2022/02/18 06:19:27;;;;;;;14.57;3.85;;;;;;;;;;5075355;28;20423;-59
2022/02/18 06:22:45;;;;;;;12.80;2.88;;;;;;;;;;5098101;28;20114;-59
2022/02/18 06:25:47;;;;;;;6.32;1.77;;;;;;;;;;4986897;28;20436;-59
2022/02/18 06:31:01;;;;;;;6.65;1.95;;;;;;;;;;4996466;28;20049;-59
2022/02/18 06:33:39;;;;;;;8.13;3.00;;;;;;;;;;4995478;28;20499;-59
2022/02/18 06:36:46;;;;;;;11.40;2.58;;;;;;;;;;5039674;28;20028;-59
2022/02/18 06:39:50;;;;;;;10.93;2.42;;;;;;;;;;5095119;28;20469;-59
2022/02/18 06:42:27;;;;;;;9.18;2.42;;;;;;;;;;5087382;28;20028;-59
2022/02/18 06:48:14;;;;;;;14.90;2.35;;;;;;;;;;5082152;28;20038;-59
2022/02/18 06:51:05;;;;;;;9.85;2.38;;;;;;;;;;5096776;28;20032;-59
2022/02/18 06:59:45;;;;;;;;;;;;;;;;;;;;;
2022/02/18 07:05:19;;;;;;;8.95;2.40;;;;;;;;;;5092377;28;20485;-59
2022/02/18 07:08:04;;;;;;;9.00;2.42;;;;;;;;;;5033696;28;20107;-59
2022/02/18 07:11:12;;;;;;;5.40;1.90;;;;;;;;;;5014251;28;20407;-59
2022/02/18 07:22:28;;;;;;;8.45;2.67;;;;;;;;;;5000871;28;20093;-59
2022/02/18 07:25:10;;;;;;;13.20;1.77;;;;;;;;;;5033331;28;20028;-59
2022/02/18 07:27:46;;;;;;;7.50;2.28;;;;;;;;;;5017826;28;20600;-59
2022/02/18 07:33:39;;;;;;;5.72;2.47;;;;;;;;;;5010759;28;20260;-59
2022/02/18 07:36:11;;;;;;;5.90;1.83;;;;;;;;;;5013363;28;20034;-58
2022/02/18 07:38:49;;;;;;;6.28;2.40;;;;;;;;;;5041873;28;20524;-58
2022/02/18 07:41:21;;;;;;;16.02;2.85;;;;;;;;;;5073705;28;20047;-59
2022/02/18 07:44:03;;;;;;;5.85;2.22;;;;;;;;;;5072439;28;20548;-59
2022/02/18 07:46:42;;;;;;;6.90;2.85;;;;;;;;;;5050063;28;20624;-58
2022/02/18 07:49:43;;;;;;;8.85;2.38;;;;;;;;;;5033791;28;20522;-59
2022/02/18 07:52:20;;;;;;;5.50;2.03;;;;;;;;;;5027251;28;20049;-59
2022/02/18 07:55:12;;;;;;;7.25;2.88;;;;;;;;;;5033452;28;20041;-58
2022/02/18 08:01:17;;;;;;;;;;;;;;;;;;;;;
2022/02/18 08:03:58;;;;;;;2.50;1.40;;;;;;;;;;5033617;28;20021;-59
2022/02/18 08:07:01;;;;;;;6.05;1.10;;;;;;;;;;5037356;28;20032;-59
2022/02/18 08:09:38;;;;;;;8.45;1.50;;;;;;;;;;5052984;28;20032;-59
2022/02/18 08:12:43;;;;;;;6.72;2.35;;;;;;;;;;5035822;28;20414;-59
2022/02/18 08:15:41;;;;;;;2.28;0.88;;;;;;;;;;5033434;28;20074;-59
2022/02/18 08:18:11;;;;;;;6.50;1.67;;;;;;;;;;5021270;28;20061;-59
2022/02/18 08:20:56;;;;;;;6.53;2.03;;;;;;;;;;5032831;28;20045;-59
2022/02/18 08:23:43;;;;;;;5.65;1.13;;;;;;;;;;5032892;28;20491;-59
2022/02/18 08:33:29;;;;;;;7.65;1.45;;;;;;;;;;5053040;28;20517;-59
2022/02/18 08:36:19;;;;;;;4.38;0.98;;;;;;;;;;5035893;28;20044;-59
2022/02/18 08:42:31;;;;;;;;;;;;;;;;;;;;;
2022/02/18 08:45:55;;;;;;;2.10;0.73;;;;;;;;;;5045722;28;20050;-59
2022/02/18 08:48:52;;;;;;;2.80;1.05;;;;;;;;;;5074829;28;20028;-59
2022/02/18 08:51:51;;;;;;;4.25;1.13;;;;;;;;;;5092342;28;20481;-59
2022/02/18 08:54:33;;;;;;;5.75;1.55;;;;;;;;;;5050688;28;20491;-59
2022/02/18 08:57:28;;;;;;;;;;;;;;;;;;;;;
2022/02/18 09:00:33;;;;;;;3.03;1.15;;;;;;;;;;5062603;28;20112;-59
2022/02/18 09:03:10;;;;;;;5.47;0.93;;;;;;;;;;4976334;28;20031;-59
2022/02/18 09:15:30;;;;;;;;;;;;;;;;;;;;;
2022/02/18 09:18:21;;;;;;;2.63;0.95;;;;;;;;;;5086710;28;20051;-59
2022/02/18 09:23:50;;;;;;;5.93;1.05;;;;;;;;;;5031537;28;20481;-59
2022/02/18 09:26:36;;;;;;;6.63;1.70;;;;;;;;;;5062914;28;20043;-59
2022/02/18 09:29:16;;;;;;;3.65;1.02;;;;;;;;;;5093585;28;20024;-59
2022/02/18 09:34:58;;;;;;;0.82;0.35;;;;;;;;;;5031144;28;20028;-59
2022/02/18 09:38:04;;;;;;;;;;;;;;;;;;;;;
2022/02/18 09:41:01;;;;;;;1.15;0.50;;;;;;;;;;5091627;28;20571;-59
2022/02/18 09:43:45;;;;;;;2.13;0.85;;;;;;;;;;5093990;28;20086;-59
2022/02/18 09:49:22;;;;;;;3.72;0.85;;;;;;;;;;5077583;28;20028;-59
2022/02/18 09:52:00;;;;;;;1.50;0.22;;;;;;;;;;5092679;28;20032;-59
2022/02/18 09:54:55;;;;;;;;;;;;;;;;;;;;;
2022/02/18 09:57:42;;;;;;;1.17;0.40;;;;;;;;;;5054759;28;20036;-59
2022/02/18 10:00:25;;;;;;;1.42;0.43;;;;;;;;;;5058266;28;20036;-59
2022/02/18 10:03:36;;;;;;;1.33;0.65;;;;;;;;;;5070155;28;20530;-59
2022/02/18 10:12:02;;;;;;;2.03;0.50;;;;;;;;;;5097711;28;20093;-59
2022/02/18 10:14:56;;;;;;;0.77;0.50;;;;;;;;;;5097455;28;20512;-59
2022/02/18 10:17:45;;;;;;;2.03;0.52;;;;;;;;;;5095708;28;20060;-59
2022/02/18 10:20:24;;;;;;;1.00;0.57;;;;;;;;;;5097225;28;20436;-59
2022/02/18 10:23:09;;;;;;;3.10;0.73;;;;;;;;;;5097356;28;20035;-59
2022/02/18 10:26:00;;;;;;;1.50;0.70;;;;;;;;;;5098066;28;20408;-59
2022/02/18 10:28:38;;;;;;;2.33;0.45;;;;;;;;;;5073050;28;20036;-59
2022/02/18 10:34:34;;;;;;;2.42;0.85;;;;;;;;;;5097240;28;20073;-59
2022/02/18 10:37:12;;;;;;;0.75;0.28;;;;;;;;;;5096988;28;20063;-59
2022/02/18 10:39:49;;;;;;;1.92;0.57;;;;;;;;;;5098014;28;20032;-59
2022/02/18 10:42:31;;;;;;;1.13;0.60;;;;;;;;;;5054133;28;20041;-59
2022/02/18 10:48:28;;;;;;;4.82;0.40;;;;;;;;;;4956480;29;20035;-59
2022/02/18 10:51:14;;;;;;;6.88;1.40;;;;;;;;;;5036255;28;20063;-59
2022/02/18 10:56:50;;;;;;;;;;;;;;;;;;;;;
2022/02/18 10:59:32;;;;;;;1.70;0.65;;;;;;;;;;5053050;28;20163;-59
2022/02/18 11:02:18;;;;;;;2.17;0.47;;;;;;;;;;5037860;28;20560;-59
2022/02/18 11:05:04;;;;;;;3.75;0.85;;;;;;;;;;5014961;28;20038;-59
2022/02/18 11:07:53;;;;;;;4.15;0.88;;;;;;;;;;5032114;28;20044;-59
2022/02/18 11:19:56;;;;;;;3.50;1.48;;;;;;;;;;5019273;28;20049;-59
2022/02/18 11:25:36;;;;;;;1.38;0.40;;;;;;;;;;5034113;28;20064;-59
2022/02/18 11:28:16;;;;;;;1.40;0.55;;;;;;;;;;5033986;28;20037;-59
2022/02/18 11:31:17;;;;;;;1.05;0.55;;;;;;;;;;5033163;28;20113;-58
2022/02/18 11:33:43;;;;;;;;;;;;;;;;;;5017377;28;20057;-59
2022/02/18 11:36:35;;;;;;;0.93;0.50;;;;;;;;;;5072250;28;19912;-59
2022/02/18 11:39:37;;;;;;;2.42;0.88;;;;;;;;;;5095318;28;20031;-59
2022/02/18 11:42:34;;;;;;;2.28;0.75;;;;;;;;;;5072664;28;20039;-59
2022/02/18 11:45:26;;;;;;;1.40;0.50;;;;;;;;;;5095585;28;20443;-59
2022/02/18 11:47:59;;;;;;;1.17;0.47;;;;;;;;;;5073721;28;20036;-59
2022/02/18 11:50:47;;;;;;;;;;;;;;;;;;;;;
2022/02/18 11:53:33;;;;;;;7.22;0.50;;;;;;;;;;5088656;28;20036;-59
2022/02/18 11:59:30;;;;;;;4.40;0.73;;;;;;;;;;5096090;28;20067;-59
2022/02/18 12:02:31;;;;;;;;;;;;;;;;;;;;;
2022/02/18 12:05:06;;;;;;;;;;;;;;;;;;5092082;28;20095;-59
2022/02/18 12:07:57;;;;;;;2.13;0.38;;;;;;;;;;5076717;28;19904;-59
2022/02/18 12:10:39;;;;;;;2.75;0.80;;;;;;;;;;5096302;28;20090;-59
2022/02/18 12:13:59;;;;;;;0.80;0.50;;;;;;;;;;5095175;28;20492;-59
2022/02/18 12:16:32;;;;;;;0.52;0.30;;;;;;;;;;4993142;28;20061;-59
2022/02/18 12:19:24;;;;;;;;;;;;;;;;;;;;;
2022/02/18 12:25:06;;;;;;;1.42;0.50;;;;;;;;;;4973536;28;20444;-59
2022/02/18 12:28:09;;;;;;;2.65;0.52;;;;;;;;;;4973855;28;20038;-59
2022/02/18 12:33:42;;;;;;;0.55;0.25;;;;;;;;;;4923671;29;20126;-59
2022/02/18 12:36:11;;;;;;;0.95;0.47;;;;;;;;;;4967493;28;20042;-59
2022/02/18 12:38:59;;;;;;;1.48;0.57;;;;;;;;;;4973689;28;20054;-59
2022/02/18 12:41:48;;;;;;;1.15;0.25;;;;;;;;;;5064023;28;20490;-59
2022/02/18 12:47:35;;;;;;;0.43;0.30;;;;;;;;;;5060492;28;20032;-59
2022/02/18 12:50:52;;;;;;;2.05;0.65;;;;;;;;;;5073250;28;20529;-59
2022/02/18 13:00:20;;;;;;;4.88;0.40;;;;;;;;;;5029383;28;20036;-59
2022/02/18 13:02:59;;;;;;;2.47;1.13;;;;;;;;;;5040993;28;20053;-59
2022/02/18 13:05:44;;;;;;;2.80;0.88;;;;;;;;;;5038942;28;20032;-59
2022/02/18 13:11:56;;;;;;;0.70;0.30;;;;;;;;;;5069632;28;20405;-59
2022/02/18 13:14:52;;;;;;;0.85;0.30;;;;;;;;;;4973906;28;20038;-59
2022/02/18 13:23:51;;;;;;;1.75;0.68;;;;;;;;;;4987381;28;20093;-59
2022/02/18 13:26:24;;;;;;;2.97;0.45;;;;;;;;;;5089463;28;20068;-59
2022/02/18 13:29:32;;;;;;;0.80;0.20;;;;;;;;;;5070795;28;20028;-59
2022/02/18 13:38:03;;;;;;;1.23;0.55;;;;;;;;;;5080987;28;20598;-59
2022/02/18 13:40:40;;;;;;;3.53;0.68;;;;;;;;;;5094187;28;20032;-59
2022/02/18 13:43:43;;;;;;;3.47;0.73;;;;;;;;;;5098947;28;20051;-59
2022/02/18 13:46:53;;;;;;;2.55;0.88;;;;;;;;;;5081321;28;20040;-59
2022/02/18 13:49:27;;;;;;;1.17;0.57;;;;;;;;;;5071953;28;20028;-59
2022/02/18 13:52:12;;;;;;;;;;;;;;;;;;;;;
2022/02/18 13:55:15;;;;;;;0.82;0.40;;;;;;;;;;5097611;28;20034;-59
2022/02/18 13:58:06;;;;;;;0.95;0.50;;;;;;;;;;5096393;28;20020;-59
2022/02/18 14:04:17;;;;;;;0.98;0.65;;;;;;;;;;5097645;28;20036;-58
2022/02/18 14:07:02;;;;;;;3.60;1.13;;;;;;;;;;4992700;28;20034;-59
2022/02/18 14:09:49;;;;;;;1.80;0.68;;;;;;;;;;5022214;28;20148;-59
2022/02/18 14:12:36;;;;;;;4.65;0.60;;;;;;;;;;5096976;28;20040;-59
2022/02/18 14:18:46;;;;;;;1.70;0.68;;;;;;;;;;5062339;28;20035;-59
2022/02/18 14:21:47;;;;;;;;;;;;;;;;;;;;;
2022/02/18 14:24:44;;;;;;;0.70;0.40;;;;;;;;;;5097646;28;20020;-59
2022/02/18 14:27:17;;;;;;;2.47;0.40;;;;;;;;;;5048754;28;20115;-59
2022/02/18 14:30:12;;;;;;;3.80;0.80;;;;;;;;;;5097017;28;20082;-59
2022/02/18 14:35:47;;;;;;;2.90;0.80;;;;;;;;;;5097097;28;20035;-59
2022/02/18 14:38:28;;;;;;;7.85;1.55;;;;;;;;;;5044815;28;20349;-59
2022/02/18 14:40:56;;;;;;;;;;;;;;;;;;5097911;28;20055;-59
2022/02/18 14:43:56;;;;;;;;;;;;;;;;;;;;;
2022/02/18 14:49:31;;;;;;;1.48;0.60;;;;;;;;;;5096922;28;20381;-59
2022/02/18 14:52:32;;;;;;;2.38;0.63;;;;;;;;;;5094530;28;20032;-59
2022/02/18 14:55:55;;;;;;;1.25;0.45;;;;;;;;;;5096227;28;20039;-59
2022/02/18 15:01:36;;;;;;;0.85;0.50;;;;;;;;;;5064576;28;20043;-59
2022/02/18 15:04:27;;;;;;;1.55;0.50;;;;;;;;;;5096535;28;20031;-60
2022/02/18 15:06:53;;;;;;;1.10;0.55;;;;;;;;;;5097056;28;20032;-59
2022/02/18 15:09:38;;;;;;;1.23;0.57;;;;;;;;;;5079161;28;20110;-59
2022/02/18 15:12:21;;;;;;;8.10;1.05;;;;;;;;;;5053844;28;20041;-59
2022/02/18 15:15:05;;;;;;;2.20;0.93;;;;;;;;;;5037317;28;20478;-59
2022/02/18 15:17:45;;;;;;;0.85;0.50;;;;;;;;;;5038238;28;20535;-59
2022/02/18 15:23:36;;;;;;;;;;;;;;;;;;;;;
2022/02/18 15:34:35;;;;;;;2.28;1.00;;;;;;;;;;5016816;28;20059;-59
2022/02/18 15:35:12;;;;;;;1.05;0.70;;;;;;;;;;5054034;28;20031;-59
2022/02/18 15:37:54;;;;;;;;;;;;;;;;;;;;;
2022/02/18 15:43:39;;;;;;;1.23;0.45;;;;;;;;;;5078152;28;20152;-59
2022/02/18 15:46:27;;;;;;;1.52;0.68;;;;;;;;;;5090905;28;20544;-59
2022/02/18 15:55:18;;;;;;;3.78;1.35;;;;;;;;;;5080802;28;20495;-59
2022/02/18 15:58:03;;;;;;;3.88;0.68;;;;;;;;;;4994924;28;20030;-59
2022/02/18 16:00:47;;;;;;;2.55;0.63;;;;;;;;;;5053960;28;20036;-59
2022/02/18 16:03:46;;;;;;;;;;;;;;;;;;;;;
2022/02/18 16:06:34;;;;;;;1.98;0.88;;;;;;;;;;5051416;28;20029;-59
2022/02/18 16:09:18;;;;;;;2.92;0.50;;;;;;;;;;5022654;28;20021;-59
2022/02/18 16:18:00;;;;;;;1.70;0.90;;;;;;;;;;5038351;28;20486;-59
2022/02/18 16:21:03;;;;;;;1.30;0.70;;;;;;;;;;5051524;28;20071;-59
2022/02/18 16:24:07;;;;;;;1.83;0.60;;;;;;;;;;4981908;28;20430;-59
2022/02/18 16:27:32;;;;;;;3.33;0.90;;;;;;;;;;5023804;28;20026;-59
2022/02/18 16:30:17;;;;;;;0.93;0.40;;;;;;;;;;5030693;28;20051;-59
2022/02/18 16:32:49;;;;;;;2.95;0.88;;;;;;;;;;5074608;28;20028;-59
2022/02/18 16:35:21;;;;;;;3.05;1.05;;;;;;;;;;5074170;28;20025;-59
2022/02/18 16:38:36;;;;;;;1.48;0.93;;;;;;;;;;5075386;28;20107;-59
2022/02/18 16:41:36;;;;;;;1.80;0.77;;;;;;;;;;5012571;28;20439;-59
2022/02/18 16:47:11;;;;;;;2.97;0.80;;;;;;;;;;5074551;28;20039;-59
2022/02/18 16:50:16;;;;;;;0.88;0.43;;;;;;;;;;5074139;28;20032;-59
2022/02/18 16:56:20;;;;;;;2.97;0.70;;;;;;;;;;5018776;28;20053;-59
2022/02/18 17:01:45;;;;;;;3.60;0.70;;;;;;;;;;5065981;28;20059;-59
2022/02/18 17:07:42;;;;;;;2.08;0.63;;;;;;;;;;5063577;28;20090;-59
2022/02/18 17:10:34;;;;;;;1.63;0.63;;;;;;;;;;5056765;28;20466;-58
2022/02/18 17:13:00;;;;;;;1.55;0.60;;;;;;;;;;5056377;28;20426;-59
2022/02/18 17:15:54;;;;;;;;;;;;;;;;;;;;;
2022/02/18 17:18:54;;;;;;;;;;;;;;;;;;;;;
2022/02/18 17:21:49;;;;;;;1.45;0.60;;;;;;;;;;5047138;28;20040;-59
2022/02/18 17:24:23;;;;;;;1.38;0.60;;;;;;;;;;5092109;28;20386;-59
2022/02/18 17:27:08;;;;;;;3.78;0.90;;;;;;;;;;5094924;28;20020;-59
2022/02/18 17:29:34;;;;;;;2.20;0.90;;;;;;;;;;5073784;28;20036;-59
2022/02/18 17:39:01;;;;;;;2.70;0.57;;;;;;;;;;4953245;28;20473;-59
2022/02/18 17:42:10;;;;;;;1.65;1.08;;;;;;;;;;4993382;28;20512;-59
2022/02/18 17:44:45;;;;;;;0.63;0.30;;;;;;;;;;4929368;28;20484;-59
2022/02/18 17:47:44;;;;;;;2.42;0.50;;;;;;;;;;5071602;28;20032;-58
2022/02/18 17:50:51;;;;;;;1.92;0.50;;;;;;;;;;5094293;28;20024;-59
2022/02/18 17:53:39;;;;;;;1.00;0.47;;;;;;;;;;5039413;28;20487;-59
2022/02/18 17:56:16;;;;;;;0.90;0.60;;;;;;;;;;5095028;28;20079;-59
2022/02/18 17:59:08;;;;;;;1.55;0.70;;;;;;;;;;5095200;28;20024;-59
2022/02/18 18:02:01;;;;;;;1.10;0.50;;;;;;;;;;5093937;28;20035;-59
2022/02/18 18:04:57;;;;;;;1.15;0.50;;;;;;;;;;5049131;28;20058;-59
2022/02/18 18:07:57;;;;;;;1.58;0.90;;;;;;;;;;5095469;28;20020;-59
2022/02/18 18:13:34;;;;;;;2.33;0.60;;;;;;;;;;5094498;28;20071;-58
2022/02/18 18:19:21;;;;;;;1.60;0.25;;;;;;;;;;5038353;28;20134;-57
2022/02/18 18:24:57;;;;;;;1.70;0.40;;;;;;;;;;5028816;28;20521;-58
2022/02/18 18:27:23;;;;;;;0.25;0.15;;;;;;;;;;5055631;28;20044;-58
2022/02/18 18:35:52;;;;;;;1.55;0.40;;;;;;;;;;5040678;28;20347;-58
2022/02/18 18:38:24;;;;;;;1.80;0.38;;;;;;;;;;5038414;28;20021;-58
2022/02/18 18:41:27;;;;;;;0.28;0.15;;;;;;;;;;5054938;28;20440;-59
2022/02/18 18:44:07;;;;;;;0.30;0.20;;;;;;;;;;5054258;28;20172;-58
2022/02/18 18:46:55;;;;;;;0.47;0.20;;;;;;;;;;5050648;28;20032;-58
2022/02/18 18:49:44;;;;;;;0.15;0.13;;;;;;;;;;5097365;28;20050;-56
2022/02/18 18:52:22;;;;;;;1.02;0.30;;;;;;;;;;5095340;28;20071;-58
2022/02/18 18:58:21;;;;;;;2.25;0.85;;;;;;;;;;5082026;28;20035;-58
2022/02/18 19:01:16;;;;;;;0.47;0.35;;;;;;;;;;5097388;28;20039;-57
2022/02/18 19:04:20;;;;;;;1.13;0.38;;;;;;;;;;5096848;28;20028;-55
2022/02/18 19:07:21;;;;;;;1.13;0.35;;;;;;;;;;5066030;28;20031;-58
2022/02/18 19:10:13;;;;;;;0.45;0.20;;;;;;;;;;5096303;28;20373;-57
2022/02/18 19:12:48;;;;;;;0.63;0.28;;;;;;;;;;4994573;28;20046;-57
2022/02/18 19:15:21;;;;;;;0.47;0.20;;;;;;;;;;5074784;28;20036;-57
2022/02/18 19:18:11;;;;;;;0.13;0.10;;;;;;;;;;5095265;28;20036;-58
2022/02/18 19:24:51;;;;;;;0.75;0.25;;;;;;;;;;5061285;28;20093;-57
2022/02/18 19:27:21;;;;;;;0.75;0.30;;;;;;;;;;5093038;28;20043;-58
2022/02/18 19:30:09;;;;;;;0.10;0.03;;;;;;;;;;5077771;28;20063;-57
2022/02/18 19:32:47;;;;;;;0.47;0.28;;;;;;;;;;5077325;28;20391;-58
2022/02/18 19:35:32;;;;;;;;;;;;;;;;;;;;;
2022/02/18 19:38:17;;;;;;;0.85;0.38;;;;;;;;;;5080655;28;20111;-58
2022/02/18 19:41:00;;;;;;;1.17;0.38;;;;;;;;;;5095512;28;20024;-58
2022/02/18 19:46:31;;;;;;;0.52;0.20;;;;;;;;;;5033414;28;20080;-57
2022/02/18 19:49:06;;;;;;;0.40;0.10;;;;;;;;;;5086816;28;20050;-57
2022/02/18 19:51:52;;;;;;;0.35;0.15;;;;;;;;;;5095789;28;20446;-55
2022/02/18 19:57:46;;;;;;;0.85;0.30;;;;;;;;;;5079455;28;20052;-58
2022/02/18 20:00:27;;;;;;;5.05;0.80;;;;;;;;;;5096549;28;20101;-58
2022/02/18 20:03:17;;;;;;;1.42;1.33;;;;;;;;;;5078660;28;20115;-58
2022/02/18 20:06:23;;;;;;;;;;;;;;;;;;;;;
2022/02/18 20:12:10;;;;;;;2.25;0.55;;;;;;;;;;5077990;28;20388;-58
2022/02/18 20:14:46;;;;;;;0.57;0.28;;;;;;;;;;5095517;28;20160;-58
2022/02/18 20:17:46;;;;;;;0.82;0.38;;;;;;;;;;5096197;28;20028;-58
2022/02/18 20:23:15;;;;;;;3.45;0.60;;;;;;;;;;5095277;28;20191;-59
2022/02/18 20:26:06;;;;;;;4.05;0.77;;;;;;;;;;5096128;28;20035;-56
2022/02/18 20:28:50;;;;;;;3.63;0.75;;;;;;;;;;5095698;28;20106;-59
2022/02/18 20:34:36;;;;;;;0.43;0.30;;;;;;;;;;5095459;28;20043;-58
2022/02/18 20:42:56;;;;;;;1.13;0.50;;;;;;;;;;5103060;28;20035;-58
2022/02/18 20:45:38;;;;;;;0.55;0.28;;;;;;;;;;5091954;28;20039;-58
2022/02/18 20:48:39;;;;;;;;;;;;;;;;;;;;;
2022/02/18 20:54:05;;;;;;;0.55;0.30;;;;;;;;;;5069622;28;20481;-58
2022/02/18 20:57:15;;;;;;;0.40;0.28;;;;;;;;;;5094841;28;20055;-57
2022/02/18 20:59:51;;;;;;;3.40;0.68;;;;;;;;;;5094594;28;20020;-58
2022/02/18 21:03:03;;;;;;;1.48;0.93;;;;;;;;;;5075104;28;20571;-58
2022/02/18 21:05:57;;;;;;;2.22;0.65;;;;;;;;;;5094050;28;20032;-58
2022/02/18 21:08:32;;;;;;;1.15;0.50;;;;;;;;;;5092604;28;20036;-58
2022/02/18 21:11:34;;;;;;;3.95;0.80;;;;;;;;;;5076765;28;20488;-57
2022/02/18 21:14:46;;;;;;;1.75;0.57;;;;;;;;;;5089248;28;20028;-58
2022/02/18 21:17:21;;;;;;;1.85;0.65;;;;;;;;;;5094863;28;20361;-58
2022/02/18 21:19:59;;;;;;;2.42;0.57;;;;;;;;;;5072510;28;20482;-58
2022/02/18 21:26:21;;;;;;;0.68;0.40;;;;;;;;;;5068825;28;20044;-58
2022/02/18 21:29:28;;;;;;;2.45;0.60;;;;;;;;;;5012195;28;20037;-58
2022/02/18 21:38:49;;;;;;;0.47;0.28;;;;;;;;;;4973105;28;20532;-58
2022/02/18 21:41:17;;;;;;;1.63;0.70;;;;;;;;;;4972408;28;20035;-58
2022/02/18 21:44:13;;;;;;;0.47;0.20;;;;;;;;;;4973320;28;20118;-58
2022/02/18 21:46:53;;;;;;;1.17;0.47;;;;;;;;;;4971508;28;20577;-59
2022/02/18 21:52:56;;;;;;;2.70;0.75;;;;;;;;;;5064775;28;20075;-59
2022/02/18 21:55:41;;;;;;;1.10;0.60;;;;;;;;;;5078141;28;20377;-58
2022/02/18 21:58:39;;;;;;;1.15;0.75;;;;;;;;;;5093710;28;20036;-59
2022/02/18 22:01:24;;;;;;;1.73;0.75;;;;;;;;;;5098508;28;20147;-58
2022/02/18 22:07:04;;;;;;;2.08;0.70;;;;;;;;;;5065058;28;20051;-58
2022/02/18 22:19:36;;;;;;;2.90;0.85;;;;;;;;;;5029891;28;20038;-59
2022/02/18 22:25:23;;;;;;;4.35;0.65;;;;;;;;;;4952217;29;20063;-58
2022/02/18 22:31:17;;;;;;;2.13;0.85;;;;;;;;;;4870145;29;20033;-58
2022/02/18 22:33:50;;;;;;;6.53;0.98;;;;;;;;;;4952911;29;20447;-58
2022/02/18 22:36:38;;;;;;;5.88;1.05;;;;;;;;;;4977045;28;20047;-59
2022/02/18 22:45:04;;;;;;;2.10;0.77;;;;;;;;;;4987186;28;20406;-58
2022/02/18 22:47:58;;;;;;;4.90;0.60;;;;;;;;;;4990433;28;20038;-58
2022/02/18 22:56:34;;;;;;;1.23;0.52;;;;;;;;;;4981185;28;20041;-58
2022/02/18 22:59:11;;;;;;;2.78;0.73;;;;;;;;;;5026172;28;20120;-59
2022/02/18 23:04:54;;;;;;;3.10;1.10;;;;;;;;;;5107014;28;20067;-58
2022/02/18 23:07:39;;;;;;;5.95;2.03;;;;;;;;;;5109417;28;20067;-58
2022/02/18 23:16:13;;;;;;;4.72;1.48;;;;;;;;;;5109407;28;20043;-58
2022/02/18 23:19:17;;;;;;;1.65;0.70;;;;;;;;;;5110080;28;20119;-59
2022/02/18 23:22:25;;;;;;;4.63;1.20;;;;;;;;;;5009076;28;20053;-58